Главная страница
METAR-TAF:

METAR-TAF

Аэропорты :

Витязево

Анапа, Россия

широта: 44-54N, долгота: 037-19E, высота над уровнем моря: 53 м

Текущие метеонаблюдения

Эта сводка был подготовлена 33 минут назад, в 05:00 UTC
Штиль
Температура 6°C
Влажность 87%
Давление 1024 hPa
Видимость 10 км и более
Нет облачности ниже 1500 м, и нет кучево-дождевой облачности

METAR: URKA 190500Z 00000MPS CAVOK 06/04 Q1024 R04/010070 NOSIG RMK QFE764/1019

Время: 08:33 (05:33 UTC)

Прогноз

Эта сводка был подготовлена 3 часа и 37 минут назад, в 01:56 UTC
Прогноз действительный с 19-го 03 UTC до 20-го 03 UTC
Ветер 6 Узел от восточный с порывами до 16 Узел
Видимость 10 км и более
Отдельные облака на высоте 3000 фута
временами
С 19-го 03 UTC до 19-го 06 UTC
Видимость: 3100 м
Отдельные облака на высоте 1100 фута
дымка
временами
С 19-го 12 UTC до 19-го 15 UTC
Ветер 10 Узел от южный с порывами до 19 Узел

TAF: URKA 190156Z 1903/2003 08003G08MPS 9999 SCT030 TEMPO 1903/1906 3100 BR SCT011 TEMPO 1912/1915 18005G10MPS

Метеонаблюдения и прогнозы для более 4000 аэропортов (сводки METAR и TAF).

Имеющиеся станции представлены на карте желтыми и красными точками.

Чтобы увидеть название станции, наведите на нее мышь.

Затем щелкните, чтобы увидеть метеонаблюдения и метеопрогнозы.

Управление картой: чтобы увеличить масштаб, щелкните зеленые кнопки с черным крестиком; чтобы уменьшить масштаб, щелкните зеленую кнопку с тире; для просмотра соседних карт щелкайте зеленые стрелки.


METAR-TAF: